sensor_id;sensor_type;location;lat;lon;timestamp;temperature;humidity
37702;DHT22;23548;51.196;6.838;2024-02-28T00:01:53;2.40;99.90
37702;DHT22;23548;51.196;6.838;2024-02-28T00:04:20;2.40;99.90
37702;DHT22;23548;51.196;6.838;2024-02-28T00:06:46;2.40;99.90
37702;DHT22;23548;51.196;6.838;2024-02-28T00:09:12;2.40;99.90
37702;DHT22;23548;51.196;6.838;2024-02-28T00:11:46;2.40;99.90
37702;DHT22;23548;51.196;6.838;2024-02-28T00:14:15;2.30;99.90
37702;DHT22;23548;51.196;6.838;2024-02-28T00:16:42;2.30;99.90
37702;DHT22;23548;51.196;6.838;2024-02-28T00:19:09;2.20;99.90
37702;DHT22;23548;51.196;6.838;2024-02-28T00:21:35;2.20;99.90
37702;DHT22;23548;51.196;6.838;2024-02-28T00:24:00;2.20;99.90
37702;DHT22;23548;51.196;6.838;2024-02-28T00:26:28;2.20;99.90
37702;DHT22;23548;51.196;6.838;2024-02-28T00:28:54;2.30;99.90
37702;DHT22;23548;51.196;6.838;2024-02-28T00:31:20;2.40;99.90
37702;DHT22;23548;51.196;6.838;2024-02-28T00:33:47;2.50;99.90
37702;DHT22;23548;51.196;6.838;2024-02-28T00:36:13;2.50;99.90
37702;DHT22;23548;51.196;6.838;2024-02-28T00:38:39;2.60;99.90
37702;DHT22;23548;51.196;6.838;2024-02-28T00:41:04;2.70;99.90
37702;DHT22;23548;51.196;6.838;2024-02-28T00:43:30;2.70;99.90
37702;DHT22;23548;51.196;6.838;2024-02-28T00:45:56;2.70;99.90
37702;DHT22;23548;51.196;6.838;2024-02-28T00:48:23;2.60;99.90
37702;DHT22;23548;51.196;6.838;2024-02-28T00:50:49;2.50;99.90
37702;DHT22;23548;51.196;6.838;2024-02-28T00:53:15;2.40;99.90
37702;DHT22;23548;51.196;6.838;2024-02-28T00:55:41;2.40;99.90
37702;DHT22;23548;51.196;6.838;2024-02-28T00:58:07;2.40;99.90
37702;DHT22;23548;51.196;6.838;2024-02-28T01:00:33;2.30;99.90
37702;DHT22;23548;51.196;6.838;2024-02-28T01:02:58;2.20;99.90
37702;DHT22;23548;51.196;6.838;2024-02-28T01:05:24;2.10;99.90
37702;DHT22;23548;51.196;6.838;2024-02-28T01:07:50;2.00;99.90
37702;DHT22;23548;51.196;6.838;2024-02-28T01:10:15;2.00;99.90
37702;DHT22;23548;51.196;6.838;2024-02-28T01:12:41;2.00;99.90
37702;DHT22;23548;51.196;6.838;2024-02-28T01:15:07;1.90;99.90
37702;DHT22;23548;51.196;6.838;2024-02-28T01:17:33;1.80;99.90
37702;DHT22;23548;51.196;6.838;2024-02-28T01:19:59;1.70;99.90
37702;DHT22;23548;51.196;6.838;2024-02-28T01:22:25;1.70;99.90
37702;DHT22;23548;51.196;6.838;2024-02-28T01:24:50;1.60;99.90
37702;DHT22;23548;51.196;6.838;2024-02-28T01:27:16;1.60;99.90
37702;DHT22;23548;51.196;6.838;2024-02-28T01:29:42;1.60;99.90
37702;DHT22;23548;51.196;6.838;2024-02-28T01:32:08;1.60;99.90
37702;DHT22;23548;51.196;6.838;2024-02-28T01:34:34;1.50;99.90
37702;DHT22;23548;51.196;6.838;2024-02-28T01:36:59;1.60;99.90
37702;DHT22;23548;51.196;6.838;2024-02-28T01:39:25;1.60;99.90
37702;DHT22;23548;51.196;6.838;2024-02-28T01:41:52;1.70;99.90
37702;DHT22;23548;51.196;6.838;2024-02-28T01:44:18;1.80;99.90
37702;DHT22;23548;51.196;6.838;2024-02-28T01:46:44;2.00;99.90
37702;DHT22;23548;51.196;6.838;2024-02-28T01:49:10;2.10;99.90
37702;DHT22;23548;51.196;6.838;2024-02-28T01:51:36;2.20;99.90
37702;DHT22;23548;51.196;6.838;2024-02-28T01:54:02;2.30;99.90
37702;DHT22;23548;51.196;6.838;2024-02-28T01:56:28;2.30;99.90
37702;DHT22;23548;51.196;6.838;2024-02-28T01:58:55;2.30;99.90
37702;DHT22;23548;51.196;6.838;2024-02-28T02:01:22;2.30;99.90
37702;DHT22;23548;51.196;6.838;2024-02-28T02:03:48;2.30;99.90
37702;DHT22;23548;51.196;6.838;2024-02-28T02:06:14;2.40;99.90
37702;DHT22;23548;51.196;6.838;2024-02-28T02:08:40;2.40;99.90
37702;DHT22;23548;51.196;6.838;2024-02-28T02:11:06;2.40;99.90
37702;DHT22;23548;51.196;6.838;2024-02-28T02:13:32;2.40;99.90
37702;DHT22;23548;51.196;6.838;2024-02-28T02:15:58;2.40;99.90
37702;DHT22;23548;51.196;6.838;2024-02-28T02:18:23;2.40;99.90
37702;DHT22;23548;51.196;6.838;2024-02-28T02:20:57;2.40;99.90
37702;DHT22;23548;51.196;6.838;2024-02-28T02:23:24;2.40;99.90
37702;DHT22;23548;51.196;6.838;2024-02-28T02:25:50;2.50;99.90
37702;DHT22;23548;51.196;6.838;2024-02-28T02:28:16;2.40;99.90
37702;DHT22;23548;51.196;6.838;2024-02-28T02:30:41;2.40;99.90
37702;DHT22;23548;51.196;6.838;2024-02-28T02:33:08;2.40;99.90
37702;DHT22;23548;51.196;6.838;2024-02-28T02:35:34;2.40;99.90
37702;DHT22;23548;51.196;6.838;2024-02-28T02:38:00;2.40;99.90
37702;DHT22;23548;51.196;6.838;2024-02-28T02:40:26;2.40;99.90
37702;DHT22;23548;51.196;6.838;2024-02-28T02:42:51;2.40;99.90
37702;DHT22;23548;51.196;6.838;2024-02-28T02:48:39;2.60;99.90
37702;DHT22;23548;51.196;6.838;2024-02-28T02:51:05;2.60;99.90
37702;DHT22;23548;51.196;6.838;2024-02-28T02:53:30;2.60;99.90
37702;DHT22;23548;51.196;6.838;2024-02-28T02:55:56;2.70;99.90
37702;DHT22;23548;51.196;6.838;2024-02-28T02:58:22;2.70;99.90
37702;DHT22;23548;51.196;6.838;2024-02-28T03:00:47;2.80;99.90
37702;DHT22;23548;51.196;6.838;2024-02-28T03:03:13;2.80;99.90
37702;DHT22;23548;51.196;6.838;2024-02-28T03:05:39;2.80;99.90
37702;DHT22;23548;51.196;6.838;2024-02-28T03:08:05;3.00;99.90
37702;DHT22;23548;51.196;6.838;2024-02-28T03:10:31;2.90;99.90
37702;DHT22;23548;51.196;6.838;2024-02-28T03:12:56;3.00;99.90
37702;DHT22;23548;51.196;6.838;2024-02-28T03:15:22;3.00;99.90
37702;DHT22;23548;51.196;6.838;2024-02-28T03:17:48;3.00;99.90
37702;DHT22;23548;51.196;6.838;2024-02-28T03:20:14;3.00;99.90
37702;DHT22;23548;51.196;6.838;2024-02-28T03:22:40;3.10;99.90
37702;DHT22;23548;51.196;6.838;2024-02-28T03:25:06;3.20;99.90
37702;DHT22;23548;51.196;6.838;2024-02-28T03:27:32;3.20;99.90
37702;DHT22;23548;51.196;6.838;2024-02-28T03:29:58;3.30;99.90
37702;DHT22;23548;51.196;6.838;2024-02-28T03:32:24;3.30;99.90
37702;DHT22;23548;51.196;6.838;2024-02-28T03:34:49;3.20;99.90
37702;DHT22;23548;51.196;6.838;2024-02-28T03:37:15;3.30;99.90
37702;DHT22;23548;51.196;6.838;2024-02-28T03:39:41;3.30;99.90
37702;DHT22;23548;51.196;6.838;2024-02-28T03:42:07;3.40;99.90
37702;DHT22;23548;51.196;6.838;2024-02-28T03:44:33;3.40;99.90
37702;DHT22;23548;51.196;6.838;2024-02-28T03:46:58;3.40;99.90
37702;DHT22;23548;51.196;6.838;2024-02-28T03:49:24;3.50;99.90
37702;DHT22;23548;51.196;6.838;2024-02-28T03:51:50;3.50;99.90
37702;DHT22;23548;51.196;6.838;2024-02-28T03:54:16;3.50;99.90
37702;DHT22;23548;51.196;6.838;2024-02-28T03:56:42;3.50;99.90
37702;DHT22;23548;51.196;6.838;2024-02-28T03:59:07;3.50;99.90
37702;DHT22;23548;51.196;6.838;2024-02-28T04:01:33;3.60;99.90
37702;DHT22;23548;51.196;6.838;2024-02-28T04:03:59;3.50;99.90
37702;DHT22;23548;51.196;6.838;2024-02-28T04:06:25;3.60;99.90
37702;DHT22;23548;51.196;6.838;2024-02-28T04:08:50;3.70;99.90
37702;DHT22;23548;51.196;6.838;2024-02-28T04:11:16;3.70;99.90
37702;DHT22;23548;51.196;6.838;2024-02-28T04:13:42;3.70;99.90
37702;DHT22;23548;51.196;6.838;2024-02-28T04:16:09;3.70;99.90
37702;DHT22;23548;51.196;6.838;2024-02-28T04:18:35;3.70;99.90
37702;DHT22;23548;51.196;6.838;2024-02-28T04:21:01;3.80;99.90
37702;DHT22;23548;51.196;6.838;2024-02-28T04:23:26;3.80;99.90
37702;DHT22;23548;51.196;6.838;2024-02-28T04:25:52;3.80;99.90
37702;DHT22;23548;51.196;6.838;2024-02-28T04:28:18;3.80;99.90
37702;DHT22;23548;51.196;6.838;2024-02-28T04:30:44;3.80;99.90
37702;DHT22;23548;51.196;6.838;2024-02-28T04:33:09;3.80;99.90
37702;DHT22;23548;51.196;6.838;2024-02-28T04:35:35;3.80;99.90
37702;DHT22;23548;51.196;6.838;2024-02-28T04:38:01;3.80;99.90
37702;DHT22;23548;51.196;6.838;2024-02-28T04:40:26;3.80;99.90
37702;DHT22;23548;51.196;6.838;2024-02-28T04:42:52;3.90;99.90
37702;DHT22;23548;51.196;6.838;2024-02-28T04:45:18;3.90;99.90
37702;DHT22;23548;51.196;6.838;2024-02-28T04:47:43;3.90;99.90
37702;DHT22;23548;51.196;6.838;2024-02-28T04:50:10;3.90;99.90
37702;DHT22;23548;51.196;6.838;2024-02-28T04:52:35;3.90;99.90
37702;DHT22;23548;51.196;6.838;2024-02-28T04:55:01;4.00;99.90
37702;DHT22;23548;51.196;6.838;2024-02-28T04:57:27;4.00;99.90
37702;DHT22;23548;51.196;6.838;2024-02-28T04:59:53;4.00;99.90
37702;DHT22;23548;51.196;6.838;2024-02-28T05:02:19;4.00;99.90
37702;DHT22;23548;51.196;6.838;2024-02-28T05:04:47;4.00;99.90
37702;DHT22;23548;51.196;6.838;2024-02-28T05:07:13;4.10;99.90
37702;DHT22;23548;51.196;6.838;2024-02-28T05:09:39;3.90;99.90
37702;DHT22;23548;51.196;6.838;2024-02-28T05:12:05;4.00;99.90
37702;DHT22;23548;51.196;6.838;2024-02-28T05:14:30;3.90;99.90
37702;DHT22;23548;51.196;6.838;2024-02-28T05:16:56;4.00;99.90
37702;DHT22;23548;51.196;6.838;2024-02-28T05:19:22;4.10;99.90
37702;DHT22;23548;51.196;6.838;2024-02-28T05:21:48;4.10;99.90
37702;DHT22;23548;51.196;6.838;2024-02-28T05:24:14;4.00;99.90
37702;DHT22;23548;51.196;6.838;2024-02-28T05:26:40;4.00;99.90
37702;DHT22;23548;51.196;6.838;2024-02-28T05:29:06;4.00;99.90
37702;DHT22;23548;51.196;6.838;2024-02-28T05:31:32;3.90;99.90
37702;DHT22;23548;51.196;6.838;2024-02-28T05:33:59;3.90;99.90
37702;DHT22;23548;51.196;6.838;2024-02-28T05:36:26;3.90;99.90
37702;DHT22;23548;51.196;6.838;2024-02-28T05:38:54;3.90;99.90
37702;DHT22;23548;51.196;6.838;2024-02-28T05:41:20;3.90;99.90
37702;DHT22;23548;51.196;6.838;2024-02-28T05:43:46;3.90;99.90
37702;DHT22;23548;51.196;6.838;2024-02-28T05:46:13;3.90;99.90
37702;DHT22;23548;51.196;6.838;2024-02-28T05:48:41;3.90;99.90
37702;DHT22;23548;51.196;6.838;2024-02-28T05:51:07;3.80;99.90
37702;DHT22;23548;51.196;6.838;2024-02-28T05:53:33;3.80;99.90
37702;DHT22;23548;51.196;6.838;2024-02-28T05:56:05;3.80;99.90
37702;DHT22;23548;51.196;6.838;2024-02-28T05:58:42;3.80;99.90
37702;DHT22;23548;51.196;6.838;2024-02-28T06:01:09;3.70;99.90
37702;DHT22;23548;51.196;6.838;2024-02-28T06:03:38;3.80;99.90
37702;DHT22;23548;51.196;6.838;2024-02-28T06:06:04;3.80;99.90
37702;DHT22;23548;51.196;6.838;2024-02-28T06:08:34;3.90;99.90
37702;DHT22;23548;51.196;6.838;2024-02-28T06:11:01;3.90;99.90
37702;DHT22;23548;51.196;6.838;2024-02-28T06:13:27;3.80;99.90
37702;DHT22;23548;51.196;6.838;2024-02-28T06:15:54;3.70;99.90
37702;DHT22;23548;51.196;6.838;2024-02-28T06:18:20;3.80;99.90
37702;DHT22;23548;51.196;6.838;2024-02-28T06:20:48;3.80;99.90
37702;DHT22;23548;51.196;6.838;2024-02-28T06:23:14;3.80;99.90
37702;DHT22;23548;51.196;6.838;2024-02-28T06:25:40;3.80;99.90
37702;DHT22;23548;51.196;6.838;2024-02-28T06:28:06;3.70;99.90
37702;DHT22;23548;51.196;6.838;2024-02-28T06:30:33;3.70;99.90
37702;DHT22;23548;51.196;6.838;2024-02-28T06:32:59;3.70;99.90
37702;DHT22;23548;51.196;6.838;2024-02-28T06:35:26;3.80;99.90
37702;DHT22;23548;51.196;6.838;2024-02-28T06:37:51;3.80;99.90
37702;DHT22;23548;51.196;6.838;2024-02-28T06:40:17;3.70;99.90
37702;DHT22;23548;51.196;6.838;2024-02-28T06:42:43;3.60;99.90
37702;DHT22;23548;51.196;6.838;2024-02-28T06:45:09;3.60;99.90
37702;DHT22;23548;51.196;6.838;2024-02-28T06:47:35;3.80;99.90
37702;DHT22;23548;51.196;6.838;2024-02-28T06:50:05;3.80;99.90
37702;DHT22;23548;51.196;6.838;2024-02-28T06:52:31;3.70;99.90
37702;DHT22;23548;51.196;6.838;2024-02-28T06:54:57;3.60;99.90
37702;DHT22;23548;51.196;6.838;2024-02-28T06:57:29;3.70;99.90
37702;DHT22;23548;51.196;6.838;2024-02-28T06:59:54;3.60;99.90
37702;DHT22;23548;51.196;6.838;2024-02-28T07:02:20;3.60;99.90
37702;DHT22;23548;51.196;6.838;2024-02-28T07:04:46;3.70;99.90
37702;DHT22;23548;51.196;6.838;2024-02-28T07:07:12;3.60;99.90
37702;DHT22;23548;51.196;6.838;2024-02-28T07:09:38;3.50;99.90
37702;DHT22;23548;51.196;6.838;2024-02-28T07:12:04;3.40;99.90
37702;DHT22;23548;51.196;6.838;2024-02-28T07:14:30;3.50;99.90
37702;DHT22;23548;51.196;6.838;2024-02-28T07:16:55;3.40;99.90
37702;DHT22;23548;51.196;6.838;2024-02-28T07:19:21;3.50;99.90
37702;DHT22;23548;51.196;6.838;2024-02-28T07:21:47;3.40;99.90
37702;DHT22;23548;51.196;6.838;2024-02-28T07:24:13;3.50;99.90
37702;DHT22;23548;51.196;6.838;2024-02-28T07:26:39;3.50;99.90
37702;DHT22;23548;51.196;6.838;2024-02-28T07:29:06;3.60;99.90
37702;DHT22;23548;51.196;6.838;2024-02-28T07:31:32;3.80;99.90
37702;DHT22;23548;51.196;6.838;2024-02-28T07:33:57;3.90;99.90
37702;DHT22;23548;51.196;6.838;2024-02-28T07:36:23;3.70;99.90
37702;DHT22;23548;51.196;6.838;2024-02-28T07:38:49;3.70;99.90
37702;DHT22;23548;51.196;6.838;2024-02-28T07:41:15;3.90;99.90
37702;DHT22;23548;51.196;6.838;2024-02-28T07:43:43;3.80;99.90
37702;DHT22;23548;51.196;6.838;2024-02-28T07:46:10;3.80;99.90
37702;DHT22;23548;51.196;6.838;2024-02-28T07:48:37;3.80;99.90
37702;DHT22;23548;51.196;6.838;2024-02-28T07:51:09;3.90;99.90
37702;DHT22;23548;51.196;6.838;2024-02-28T07:53:35;4.10;99.90
37702;DHT22;23548;51.196;6.838;2024-02-28T07:56:01;4.10;99.90
37702;DHT22;23548;51.196;6.838;2024-02-28T07:58:27;4.10;99.90
37702;DHT22;23548;51.196;6.838;2024-02-28T08:00:53;3.90;99.90
37702;DHT22;23548;51.196;6.838;2024-02-28T08:03:19;3.90;99.90
37702;DHT22;23548;51.196;6.838;2024-02-28T08:05:45;3.90;99.90
37702;DHT22;23548;51.196;6.838;2024-02-28T08:08:11;4.00;99.90
37702;DHT22;23548;51.196;6.838;2024-02-28T08:10:37;4.30;99.90
37702;DHT22;23548;51.196;6.838;2024-02-28T08:13:04;4.20;99.90
37702;DHT22;23548;51.196;6.838;2024-02-28T08:15:30;4.10;99.90
37702;DHT22;23548;51.196;6.838;2024-02-28T08:17:55;4.20;99.90
37702;DHT22;23548;51.196;6.838;2024-02-28T08:20:21;4.20;99.90
37702;DHT22;23548;51.196;6.838;2024-02-28T08:22:47;4.30;99.90
37702;DHT22;23548;51.196;6.838;2024-02-28T08:25:13;4.30;99.90
37702;DHT22;23548;51.196;6.838;2024-02-28T08:27:40;4.20;99.90
37702;DHT22;23548;51.196;6.838;2024-02-28T08:30:06;4.50;99.90
37702;DHT22;23548;51.196;6.838;2024-02-28T08:32:32;4.50;99.90
37702;DHT22;23548;51.196;6.838;2024-02-28T08:34:58;4.50;99.90
37702;DHT22;23548;51.196;6.838;2024-02-28T08:37:24;4.20;99.90
37702;DHT22;23548;51.196;6.838;2024-02-28T08:39:50;4.10;99.90
37702;DHT22;23548;51.196;6.838;2024-02-28T08:42:16;4.40;99.90
37702;DHT22;23548;51.196;6.838;2024-02-28T08:44:42;4.30;99.90
37702;DHT22;23548;51.196;6.838;2024-02-28T08:47:07;4.00;99.90
37702;DHT22;23548;51.196;6.838;2024-02-28T08:49:34;4.00;99.90
37702;DHT22;23548;51.196;6.838;2024-02-28T08:52:01;4.30;99.90
37702;DHT22;23548;51.196;6.838;2024-02-28T08:54:27;4.50;99.90
37702;DHT22;23548;51.196;6.838;2024-02-28T08:56:53;4.60;99.90
37702;DHT22;23548;51.196;6.838;2024-02-28T08:59:19;4.50;99.90
37702;DHT22;23548;51.196;6.838;2024-02-28T09:01:45;4.70;99.90
37702;DHT22;23548;51.196;6.838;2024-02-28T09:04:10;4.60;99.90
37702;DHT22;23548;51.196;6.838;2024-02-28T09:06:36;4.70;99.90
37702;DHT22;23548;51.196;6.838;2024-02-28T09:09:02;4.90;99.90
37702;DHT22;23548;51.196;6.838;2024-02-28T09:11:29;4.80;99.90
37702;DHT22;23548;51.196;6.838;2024-02-28T09:13:55;4.50;99.90
37702;DHT22;23548;51.196;6.838;2024-02-28T09:16:20;4.60;99.90
37702;DHT22;23548;51.196;6.838;2024-02-28T09:18:46;4.60;99.90
37702;DHT22;23548;51.196;6.838;2024-02-28T09:21:12;4.50;99.90
37702;DHT22;23548;51.196;6.838;2024-02-28T09:23:38;4.50;99.90
37702;DHT22;23548;51.196;6.838;2024-02-28T09:26:04;4.60;99.90
37702;DHT22;23548;51.196;6.838;2024-02-28T09:28:30;4.60;99.90
37702;DHT22;23548;51.196;6.838;2024-02-28T09:30:56;4.70;99.90
37702;DHT22;23548;51.196;6.838;2024-02-28T09:33:23;4.70;99.90
37702;DHT22;23548;51.196;6.838;2024-02-28T09:35:49;5.10;99.90
37702;DHT22;23548;51.196;6.838;2024-02-28T09:38:15;5.30;99.90
37702;DHT22;23548;51.196;6.838;2024-02-28T09:40:41;5.40;99.90
37702;DHT22;23548;51.196;6.838;2024-02-28T09:43:14;5.30;99.90
37702;DHT22;23548;51.196;6.838;2024-02-28T09:45:40;5.40;99.90
37702;DHT22;23548;51.196;6.838;2024-02-28T09:48:07;5.70;99.90
37702;DHT22;23548;51.196;6.838;2024-02-28T09:50:35;5.50;99.90
37702;DHT22;23548;51.196;6.838;2024-02-28T09:53:01;5.20;99.90
37702;DHT22;23548;51.196;6.838;2024-02-28T09:55:27;5.20;99.90
37702;DHT22;23548;51.196;6.838;2024-02-28T09:57:53;5.30;99.90
37702;DHT22;23548;51.196;6.838;2024-02-28T10:00:20;5.70;99.90
37702;DHT22;23548;51.196;6.838;2024-02-28T10:02:50;6.10;99.90
37702;DHT22;23548;51.196;6.838;2024-02-28T10:05:16;6.00;99.90
37702;DHT22;23548;51.196;6.838;2024-02-28T10:07:47;6.10;99.90
37702;DHT22;23548;51.196;6.838;2024-02-28T10:10:13;6.20;99.90
37702;DHT22;23548;51.196;6.838;2024-02-28T10:12:42;6.50;99.90
37702;DHT22;23548;51.196;6.838;2024-02-28T10:15:10;6.80;99.90
37702;DHT22;23548;51.196;6.838;2024-02-28T10:17:36;6.70;99.90
37702;DHT22;23548;51.196;6.838;2024-02-28T10:20:02;6.50;99.90
37702;DHT22;23548;51.196;6.838;2024-02-28T10:22:39;6.10;99.90
37702;DHT22;23548;51.196;6.838;2024-02-28T10:25:05;6.00;99.90
37702;DHT22;23548;51.196;6.838;2024-02-28T10:27:35;6.20;99.90
37702;DHT22;23548;51.196;6.838;2024-02-28T10:30:02;6.60;99.90
37702;DHT22;23548;51.196;6.838;2024-02-28T10:32:32;6.40;99.90
37702;DHT22;23548;51.196;6.838;2024-02-28T10:35:00;6.90;99.90
37702;DHT22;23548;51.196;6.838;2024-02-28T10:37:28;6.90;99.90
37702;DHT22;23548;51.196;6.838;2024-02-28T10:39:57;7.10;99.90
37702;DHT22;23548;51.196;6.838;2024-02-28T10:42:25;7.20;99.90
37702;DHT22;23548;51.196;6.838;2024-02-28T10:44:53;7.60;99.90
37702;DHT22;23548;51.196;6.838;2024-02-28T10:47:19;7.70;99.90
37702;DHT22;23548;51.196;6.838;2024-02-28T10:49:45;7.40;99.90
37702;DHT22;23548;51.196;6.838;2024-02-28T10:52:12;7.50;99.90
37702;DHT22;23548;51.196;6.838;2024-02-28T10:54:42;7.60;99.90
37702;DHT22;23548;51.196;6.838;2024-02-28T10:57:08;7.80;99.90
37702;DHT22;23548;51.196;6.838;2024-02-28T10:59:37;7.60;99.90
37702;DHT22;23548;51.196;6.838;2024-02-28T11:02:05;7.70;99.90
37702;DHT22;23548;51.196;6.838;2024-02-28T11:04:31;8.00;99.90
37702;DHT22;23548;51.196;6.838;2024-02-28T11:06:57;8.10;99.90
37702;DHT22;23548;51.196;6.838;2024-02-28T11:09:24;7.80;99.90
37702;DHT22;23548;51.196;6.838;2024-02-28T11:11:53;7.70;99.90
37702;DHT22;23548;51.196;6.838;2024-02-28T11:14:21;8.00;99.90
37702;DHT22;23548;51.196;6.838;2024-02-28T11:16:58;8.20;99.90
37702;DHT22;23548;51.196;6.838;2024-02-28T11:19:25;8.10;99.90
37702;DHT22;23548;51.196;6.838;2024-02-28T11:21:57;8.20;99.90
37702;DHT22;23548;51.196;6.838;2024-02-28T11:24:30;8.50;99.90
37702;DHT22;23548;51.196;6.838;2024-02-28T11:27:00;8.40;99.90
37702;DHT22;23548;51.196;6.838;2024-02-28T11:29:27;8.60;99.90
37702;DHT22;23548;51.196;6.838;2024-02-28T11:31:54;8.30;99.90
37702;DHT22;23548;51.196;6.838;2024-02-28T11:34:20;8.30;99.90
37702;DHT22;23548;51.196;6.838;2024-02-28T11:36:55;8.50;99.90
37702;DHT22;23548;51.196;6.838;2024-02-28T11:39:22;8.80;99.90
37702;DHT22;23548;51.196;6.838;2024-02-28T11:41:50;8.90;99.90
37702;DHT22;23548;51.196;6.838;2024-02-28T11:44:16;8.70;99.90
37702;DHT22;23548;51.196;6.838;2024-02-28T11:46:46;8.80;99.90
37702;DHT22;23548;51.196;6.838;2024-02-28T11:49:15;8.70;99.90
37702;DHT22;23548;51.196;6.838;2024-02-28T11:51:42;8.90;99.90
37702;DHT22;23548;51.196;6.838;2024-02-28T11:54:08;8.90;99.90
37702;DHT22;23548;51.196;6.838;2024-02-28T11:56:40;8.50;99.90
37702;DHT22;23548;51.196;6.838;2024-02-28T11:59:06;8.50;99.90
37702;DHT22;23548;51.196;6.838;2024-02-28T12:01:35;8.90;99.90
37702;DHT22;23548;51.196;6.838;2024-02-28T12:04:05;8.90;99.90
37702;DHT22;23548;51.196;6.838;2024-02-28T12:06:35;8.70;99.90
37702;DHT22;23548;51.196;6.838;2024-02-28T12:09:05;9.00;99.90
37702;DHT22;23548;51.196;6.838;2024-02-28T12:11:35;9.30;99.90
37702;DHT22;23548;51.196;6.838;2024-02-28T12:14:06;9.80;99.90
37702;DHT22;23548;51.196;6.838;2024-02-28T12:16:36;9.90;99.90
37702;DHT22;23548;51.196;6.838;2024-02-28T12:19:10;10.10;99.90
37702;DHT22;23548;51.196;6.838;2024-02-28T12:21:39;10.20;99.90
37702;DHT22;23548;51.196;6.838;2024-02-28T12:24:07;10.00;99.90
37702;DHT22;23548;51.196;6.838;2024-02-28T12:26:37;10.20;99.90
37702;DHT22;23548;51.196;6.838;2024-02-28T12:29:03;10.10;99.90
37702;DHT22;23548;51.196;6.838;2024-02-28T12:31:29;10.30;99.90
37702;DHT22;23548;51.196;6.838;2024-02-28T12:33:55;10.50;99.90
37702;DHT22;23548;51.196;6.838;2024-02-28T12:36:21;10.50;99.90
37702;DHT22;23548;51.196;6.838;2024-02-28T12:38:48;10.70;99.90
37702;DHT22;23548;51.196;6.838;2024-02-28T12:41:14;10.60;99.90
37702;DHT22;23548;51.196;6.838;2024-02-28T12:43:41;10.60;99.90
37702;DHT22;23548;51.196;6.838;2024-02-28T12:46:07;10.70;99.90
37702;DHT22;23548;51.196;6.838;2024-02-28T12:48:39;10.50;99.90
37702;DHT22;23548;51.196;6.838;2024-02-28T12:51:06;10.90;99.90
37702;DHT22;23548;51.196;6.838;2024-02-28T12:53:34;10.60;99.90
37702;DHT22;23548;51.196;6.838;2024-02-28T12:56:00;10.80;99.90
37702;DHT22;23548;51.196;6.838;2024-02-28T12:58:26;10.80;99.90
37702;DHT22;23548;51.196;6.838;2024-02-28T13:00:52;11.30;99.90
37702;DHT22;23548;51.196;6.838;2024-02-28T13:03:18;11.50;99.90
37702;DHT22;23548;51.196;6.838;2024-02-28T13:05:44;11.80;99.90
37702;DHT22;23548;51.196;6.838;2024-02-28T13:08:10;11.60;99.80
37702;DHT22;23548;51.196;6.838;2024-02-28T13:10:38;11.70;99.10
37702;DHT22;23548;51.196;6.838;2024-02-28T13:13:07;11.80;99.30
37702;DHT22;23548;51.196;6.838;2024-02-28T13:15:33;11.70;98.20
37702;DHT22;23548;51.196;6.838;2024-02-28T13:17:59;10.90;94.80
37702;DHT22;23548;51.196;6.838;2024-02-28T13:20:26;10.90;97.60
37702;DHT22;23548;51.196;6.838;2024-02-28T13:22:52;11.10;97.60
37702;DHT22;23548;51.196;6.838;2024-02-28T13:25:19;11.10;96.90
37702;DHT22;23548;51.196;6.838;2024-02-28T13:27:46;11.10;97.50
37702;DHT22;23548;51.196;6.838;2024-02-28T13:30:12;11.60;97.30
37702;DHT22;23548;51.196;6.838;2024-02-28T13:32:39;11.70;97.30
37702;DHT22;23548;51.196;6.838;2024-02-28T13:35:04;11.70;96.30
37702;DHT22;23548;51.196;6.838;2024-02-28T13:37:30;11.50;96.20
37702;DHT22;23548;51.196;6.838;2024-02-28T13:39:58;11.70;97.20
37702;DHT22;23548;51.196;6.838;2024-02-28T13:42:25;11.80;96.00
37702;DHT22;23548;51.196;6.838;2024-02-28T13:44:51;11.70;93.30
37702;DHT22;23548;51.196;6.838;2024-02-28T13:47:17;11.20;92.80
37702;DHT22;23548;51.196;6.838;2024-02-28T13:49:43;11.10;93.60
37702;DHT22;23548;51.196;6.838;2024-02-28T13:52:08;11.40;92.70
37702;DHT22;23548;51.196;6.838;2024-02-28T13:54:34;11.10;92.60
37702;DHT22;23548;51.196;6.838;2024-02-28T13:57:00;11.40;92.80
37702;DHT22;23548;51.196;6.838;2024-02-28T13:59:27;11.40;93.70
37702;DHT22;23548;51.196;6.838;2024-02-28T14:01:53;11.70;93.60
37702;DHT22;23548;51.196;6.838;2024-02-28T14:04:18;11.80;93.60
37702;DHT22;23548;51.196;6.838;2024-02-28T14:06:45;11.90;91.10
37702;DHT22;23548;51.196;6.838;2024-02-28T14:09:13;11.70;91.90
37702;DHT22;23548;51.196;6.838;2024-02-28T14:11:39;11.10;91.80
37702;DHT22;23548;51.196;6.838;2024-02-28T14:14:05;11.10;92.90
37702;DHT22;23548;51.196;6.838;2024-02-28T14:16:31;11.30;93.90
37702;DHT22;23548;51.196;6.838;2024-02-28T14:19:00;11.70;92.60
37702;DHT22;23548;51.196;6.838;2024-02-28T14:21:26;11.60;90.90
37702;DHT22;23548;51.196;6.838;2024-02-28T14:23:51;11.50;89.50
37702;DHT22;23548;51.196;6.838;2024-02-28T14:26:17;11.70;88.60
37702;DHT22;23548;51.196;6.838;2024-02-28T14:28:43;11.90;90.00
37702;DHT22;23548;51.196;6.838;2024-02-28T14:31:09;12.10;87.70
37702;DHT22;23548;51.196;6.838;2024-02-28T14:33:35;12.50;88.00
37702;DHT22;23548;51.196;6.838;2024-02-28T14:36:02;12.00;83.30
37702;DHT22;23548;51.196;6.838;2024-02-28T14:38:31;12.00;84.50
37702;DHT22;23548;51.196;6.838;2024-02-28T14:40:57;12.40;84.20
37702;DHT22;23548;51.196;6.838;2024-02-28T14:43:23;12.40;83.30
37702;DHT22;23548;51.196;6.838;2024-02-28T14:45:52;12.70;82.50
37702;DHT22;23548;51.196;6.838;2024-02-28T14:48:18;13.00;80.50
37702;DHT22;23548;51.196;6.838;2024-02-28T14:50:44;13.40;80.80
37702;DHT22;23548;51.196;6.838;2024-02-28T14:53:09;13.20;78.20
37702;DHT22;23548;51.196;6.838;2024-02-28T14:55:35;13.30;76.70
37702;DHT22;23548;51.196;6.838;2024-02-28T14:58:01;12.90;78.00
37702;DHT22;23548;51.196;6.838;2024-02-28T15:00:27;12.50;76.90
37702;DHT22;23548;51.196;6.838;2024-02-28T15:02:53;12.00;79.50
37702;DHT22;23548;51.196;6.838;2024-02-28T15:05:19;11.90;80.70
37702;DHT22;23548;51.196;6.838;2024-02-28T15:07:46;12.10;77.40
37702;DHT22;23548;51.196;6.838;2024-02-28T15:10:11;12.10;77.00
37702;DHT22;23548;51.196;6.838;2024-02-28T15:12:39;12.30;76.40
37702;DHT22;23548;51.196;6.838;2024-02-28T15:15:07;12.20;78.10
37702;DHT22;23548;51.196;6.838;2024-02-28T15:17:33;12.80;78.20
37702;DHT22;23548;51.196;6.838;2024-02-28T15:19:59;12.50;78.10
37702;DHT22;23548;51.196;6.838;2024-02-28T15:22:28;11.90;77.80
37702;DHT22;23548;51.196;6.838;2024-02-28T15:24:55;11.70;77.60
37702;DHT22;23548;51.196;6.838;2024-02-28T15:27:21;12.10;75.70
37702;DHT22;23548;51.196;6.838;2024-02-28T15:29:47;13.20;74.60
37702;DHT22;23548;51.196;6.838;2024-02-28T15:32:13;13.30;68.70
37702;DHT22;23548;51.196;6.838;2024-02-28T15:34:39;13.30;69.00
37702;DHT22;23548;51.196;6.838;2024-02-28T15:37:05;13.00;67.00
37702;DHT22;23548;51.196;6.838;2024-02-28T15:39:31;12.20;68.30
37702;DHT22;23548;51.196;6.838;2024-02-28T15:41:57;11.70;69.90